Terminal Aerodrome Forecast
Issued by NWS Jackson, MS

Home | Current Version | Previous Version | Text Only | Print | Product List | Glossary On
Versions: 1 2 3 4 5 6 7 8 9 10 11 12 13 14 15 16 17 18 19
000
FTUS44 KMEG 051730
TAFTUP
TAF
KTUP 051730Z 0518/0618 23006KT P6SM VCTS BKN040CB
     FM060000 21004KT P6SM SCT040 SCT250
     FM060600 21002KT 5SM BR SCT015 SCT250
      TEMPO 0610/0614 1SM BR OVC004
     FM061400 20005KT P6SM SCT015
     FM061600 22007KT P6SM SCT025 BKN035=

USA.gov is the U.S. government's official web portal to all federal, state and local government web resources and services.